Time;durP1;ratioP1;P1;durP2;ratioP2;P2;SDS_P1;SDS_P2;PMS_P1;PMS_P2;Temp;Humidity;BMP_temperature;BMP_pressure;BME280_temperature;BME280_humidity;BME280_pressure;Samples;Min_cycle;Max_cycle;Signal;HPM_P1;HPM_P2
2022/02/28 00:00:19;;;;;;;6.80;4.53;;;4.80;26.70;;;;;;5011904;28;20403;-75
2022/02/28 00:02:45;;;;;;;8.50;5.10;;;4.70;26.00;;;;;;5013370;28;20395;-75
2022/02/28 00:05:11;;;;;;;10.30;4.82;;;4.80;27.30;;;;;;5010718;28;20424;-74
2022/02/28 00:07:37;;;;;;;8.70;5.03;;;4.80;26.60;;;;;;5010214;28;20447;-75
2022/02/28 00:10:04;;;;;;;7.18;4.70;;;4.80;26.40;;;;;;5011515;28;20811;-75
2022/02/28 00:12:30;;;;;;;8.38;4.70;;;4.80;26.40;;;;;;4998148;28;20890;-74
2022/02/28 00:14:55;;;;;;;8.27;4.10;;;4.80;26.30;;;;;;5021161;28;20501;-74
2022/02/28 00:17:21;;;;;;;7.27;4.80;;;4.80;26.10;;;;;;5022887;28;20428;-74
2022/02/28 00:19:47;;;;;;;9.97;5.20;;;4.80;27.10;;;;;;5020219;28;20410;-75
2022/02/28 00:22:12;;;;;;;9.30;4.87;;;4.80;26.10;;;;;;5016908;28;20898;-75
2022/02/28 00:24:38;;;;;;;7.93;4.60;;;4.70;27.00;;;;;;5001246;28;20402;-74
2022/02/28 00:27:03;;;;;;;7.25;4.90;;;4.60;27.00;;;;;;5021066;28;20411;-75
2022/02/28 00:29:29;;;;;;;8.63;4.55;;;4.60;27.50;;;;;;5012205;28;20434;-73
2022/02/28 00:31:55;;;;;;;9.23;5.10;;;4.70;26.90;;;;;;5028032;28;20405;-75
2022/02/28 00:34:20;;;;;;;8.80;5.10;;;4.70;27.50;;;;;;5024383;28;20969;-75
2022/02/28 00:36:46;;;;;;;8.80;4.87;;;4.70;27.40;;;;;;5014907;28;20435;-75
2022/02/28 00:39:11;;;;;;;9.60;4.90;;;4.60;26.80;;;;;;5009077;28;20950;-75
2022/02/28 00:41:37;;;;;;;6.53;4.17;;;4.50;26.30;;;;;;5025102;28;20411;-76
2022/02/28 00:44:03;;;;;;;9.95;5.00;;;4.60;27.30;;;;;;5027743;28;20853;-74
2022/02/28 00:46:28;;;;;;;7.32;5.30;;;4.50;26.80;;;;;;5014708;28;20405;-74
2022/02/28 00:48:54;;;;;;;6.03;4.57;;;4.50;27.10;;;;;;4992723;28;20809;-76
2022/02/28 00:51:19;;;;;;;9.30;5.40;;;4.40;26.60;;;;;;5014609;28;20759;-75
2022/02/28 00:53:45;;;;;;;10.00;5.40;;;4.40;27.80;;;;;;5021493;28;20461;-75
2022/02/28 00:56:11;;;;;;;6.53;4.80;;;4.40;27.80;;;;;;5018888;28;20393;-75
2022/02/28 00:58:36;;;;;;;11.07;5.00;;;4.30;29.30;;;;;;5015090;28;20407;-75
2022/02/28 01:01:03;;;;;;;8.20;5.00;;;4.30;28.80;;;;;;5007311;28;20408;-75
2022/02/28 01:03:29;;;;;;;8.55;5.13;;;4.40;28.20;;;;;;5023354;28;20491;-75
2022/02/28 01:05:55;;;;;;;7.28;4.80;;;4.30;27.50;;;;;;5018351;28;20432;-74
2022/02/28 01:08:21;;;;;;;8.57;5.20;;;4.30;28.20;;;;;;4991072;28;20409;-75
2022/02/28 01:10:47;;;;;;;10.10;5.43;;;4.40;28.30;;;;;;5022629;28;20415;-75
2022/02/28 01:13:13;;;;;;;10.52;5.55;;;4.20;27.70;;;;;;5023406;28;20474;-74
2022/02/28 01:15:39;;;;;;;8.23;5.30;;;4.20;27.80;;;;;;5013593;28;20397;-75
2022/02/28 01:18:05;;;;;;;9.27;5.57;;;4.20;27.20;;;;;;5010415;28;20420;-75
2022/02/28 01:20:31;;;;;;;10.48;5.32;;;4.20;28.70;;;;;;5013620;28;20876;-75
2022/02/28 01:22:56;;;;;;;5.30;4.43;;;4.10;27.60;;;;;;5020594;28;20427;-76
2022/02/28 01:25:22;;;;;;;12.23;5.68;;;4.20;28.40;;;;;;5023022;28;20403;-76
2022/02/28 01:27:48;;;;;;;9.88;5.32;;;4.10;27.30;;;;;;5017828;28;20911;-75
2022/02/28 01:30:14;;;;;;;6.10;4.87;;;4.20;27.70;;;;;;5009676;28;20414;-74
2022/02/28 01:32:41;;;;;;;11.73;5.47;;;4.20;28.10;;;;;;5023668;28;20389;-73
2022/02/28 01:35:08;;;;;;;8.88;4.88;;;4.30;27.90;;;;;;5009965;28;20776;-75
2022/02/28 01:37:34;;;;;;;10.82;6.00;;;4.20;28.40;;;;;;5009974;28;20910;-74
2022/02/28 01:40:00;;;;;;;6.70;5.10;;;4.10;27.70;;;;;;5009736;28;20399;-74
2022/02/28 01:42:26;;;;;;;9.35;5.40;;;4.10;28.40;;;;;;5009230;28;20468;-74
2022/02/28 01:44:51;;;;;;;10.97;5.40;;;4.20;27.90;;;;;;5010878;28;20490;-74
2022/02/28 01:47:17;;;;;;;10.60;5.60;;;4.20;27.90;;;;;;5010912;28;20981;-74
2022/02/28 01:49:42;;;;;;;6.63;5.07;;;4.10;27.90;;;;;;5017759;28;20416;-74
2022/02/28 01:52:08;;;;;;;9.32;5.22;;;4.10;28.00;;;;;;5027730;28;20470;-76
2022/02/28 01:54:34;;;;;;;8.90;5.80;;;4.10;27.60;;;;;;5014584;28;20531;-74
2022/02/28 01:57:00;;;;;;;9.85;5.30;;;4.10;27.30;;;;;;5012333;28;20417;-73
2022/02/28 01:59:25;;;;;;;9.65;5.30;;;4.00;28.00;;;;;;5008719;28;20391;-74
2022/02/28 02:01:51;;;;;;;11.87;6.37;;;4.10;27.80;;;;;;5012210;28;20492;-74
2022/02/28 02:04:17;;;;;;;7.83;5.30;;;4.00;27.50;;;;;;5011630;28;20399;-74
2022/02/28 02:06:42;;;;;;;7.43;5.20;;;4.00;28.10;;;;;;5005488;28;20407;-75
2022/02/28 02:09:09;;;;;;;8.50;5.38;;;3.90;27.30;;;;;;5025087;28;21141;-75
2022/02/28 02:11:35;;;;;;;6.80;5.50;;;3.90;27.70;;;;;;5028865;28;20414;-76
2022/02/28 02:14:01;;;;;;;8.32;5.45;;;3.90;28.70;;;;;;5016273;28;20399;-75
2022/02/28 02:16:27;;;;;;;12.10;6.10;;;3.80;27.70;;;;;;5012931;28;20393;-75
2022/02/28 02:18:52;;;;;;;6.60;5.20;;;3.80;27.70;;;;;;4998309;28;20903;-75
2022/02/28 02:21:18;;;;;;;10.50;4.93;;;3.90;28.10;;;;;;5011391;28;20400;-75
2022/02/28 02:23:43;;;;;;;6.30;5.10;;;3.90;28.50;;;;;;5012574;28;20408;-75
2022/02/28 02:26:14;;;;;;;10.70;5.82;;;3.90;29.30;;;;;;4999725;28;20917;-74
2022/02/28 02:28:40;;;;;;;7.80;5.67;;;3.70;28.40;;;;;;5010218;28;20792;-75
2022/02/28 02:31:06;;;;;;;11.80;5.82;;;3.70;29.40;;;;;;5019844;28;20417;-75
2022/02/28 02:33:33;;;;;;;6.93;5.57;;;3.80;28.40;;;;;;5016537;28;20796;-75
2022/02/28 02:36:00;;;;;;;8.45;5.50;;;3.80;28.50;;;;;;5011779;28;20904;-75
2022/02/28 02:38:27;;;;;;;8.00;6.05;;;3.70;29.50;;;;;;5014273;28;20523;-74
2022/02/28 02:40:54;;;;;;;9.05;5.97;;;3.60;29.50;;;;;;5013471;28;20399;-73
2022/02/28 02:43:20;;;;;;;9.15;5.40;;;3.60;28.70;;;;;;5018488;28;20442;-73
2022/02/28 02:45:46;;;;;;;8.18;5.60;;;3.60;30.60;;;;;;5014552;28;20414;-74
2022/02/28 02:48:23;;;;;;;9.87;5.50;;;3.50;29.90;;;;;;5011837;28;20778;-74
2022/02/28 02:50:50;;;;;;;8.77;6.07;;;3.60;31.20;;;;;;5029728;28;20416;-74
2022/02/28 02:53:17;;;;;;;8.65;5.78;;;3.50;29.80;;;;;;5015898;28;20471;-73
2022/02/28 02:55:43;;;;;;;9.18;5.50;;;3.60;30.90;;;;;;5020980;28;20425;-73
2022/02/28 02:58:13;;;;;;;8.60;5.22;;;3.60;30.30;;;;;;5020946;28;20427;-73
2022/02/28 03:00:41;;;;;;;7.20;5.70;;;3.60;28.80;;;;;;5018480;28;20395;-73
2022/02/28 03:03:09;;;;;;;9.38;5.75;;;3.50;29.70;;;;;;5024545;28;20399;-73
2022/02/28 03:05:34;;;;;;;7.80;5.80;;;3.50;30.40;;;;;;5012979;28;20407;-73
2022/02/28 03:08:00;;;;;;;8.83;6.07;;;3.40;29.60;;;;;;5009953;28;20401;-73
2022/02/28 03:10:25;;;;;;;7.90;5.67;;;3.50;29.60;;;;;;5016507;28;20412;-71
2022/02/28 03:12:51;;;;;;;11.00;6.07;;;3.50;29.40;;;;;;5014376;28;20392;-73
2022/02/28 03:15:17;;;;;;;13.60;5.60;;;3.40;30.40;;;;;;5014697;28;20389;-71
2022/02/28 03:17:42;;;;;;;9.23;5.90;;;3.30;31.20;;;;;;5014629;28;20400;-71
2022/02/28 03:20:08;;;;;;;7.67;5.30;;;3.20;31.70;;;;;;5011466;28;20988;-71
2022/02/28 03:22:34;;;;;;;12.02;6.53;;;3.20;30.70;;;;;;5026661;28;20420;-70
2022/02/28 03:25:00;;;;;;;9.40;6.00;;;3.30;31.00;;;;;;5012281;28;20493;-73
2022/02/28 03:27:26;;;;;;;9.67;6.40;;;3.20;30.20;;;;;;5016867;28;20408;-73
2022/02/28 03:29:52;;;;;;;12.85;6.30;;;3.10;30.90;;;;;;5004592;28;20423;-74
2022/02/28 03:32:18;;;;;;;14.18;6.75;;;3.20;32.00;;;;;;5028074;28;20395;-73
2022/02/28 03:34:43;;;;;;;11.70;6.20;;;3.20;31.60;;;;;;5014464;28;20393;-73
2022/02/28 03:37:09;;;;;;;13.07;6.30;;;3.20;31.50;;;;;;5015109;28;20435;-73
2022/02/28 03:39:34;;;;;;;12.70;6.30;;;3.10;30.80;;;;;;5010534;28;20762;-73
2022/02/28 03:42:00;;;;;;;10.55;6.50;;;3.00;32.40;;;;;;5011318;28;20405;-73
2022/02/28 03:44:25;;;;;;;9.85;6.15;;;2.90;32.70;;;;;;5021674;28;20468;-74
2022/02/28 03:46:51;;;;;;;8.43;5.90;;;3.00;33.40;;;;;;5010161;28;20442;-73
2022/02/28 03:49:19;;;;;;;11.98;6.45;;;2.80;33.50;;;;;;5015541;28;20491;-73
2022/02/28 03:51:44;;;;;;;12.48;6.30;;;2.80;33.70;;;;;;5011624;28;20411;-74
2022/02/28 03:54:13;;;;;;;10.60;6.57;;;2.70;34.60;;;;;;5007375;28;20402;-74
2022/02/28 03:56:40;;;;;;;10.95;6.22;;;2.60;35.10;;;;;;5019524;28;20451;-74
2022/02/28 03:59:08;;;;;;;11.45;6.03;;;2.50;34.70;;;;;;5016784;28;20401;-73
2022/02/28 04:01:33;;;;;;;15.90;6.90;;;2.60;34.40;;;;;;5020238;28;20427;-74
2022/02/28 04:04:00;;;;;;;9.18;5.90;;;2.60;34.50;;;;;;5018744;28;20888;-74
2022/02/28 04:06:27;;;;;;;7.80;5.97;;;2.80;35.90;;;;;;5026344;28;20407;-74
2022/02/28 04:08:53;;;;;;;13.82;6.70;;;2.70;34.80;;;;;;5026582;28;20405;-73
2022/02/28 04:11:18;;;;;;;12.20;6.60;;;2.60;35.20;;;;;;5014133;28;20484;-73
2022/02/28 04:13:44;;;;;;;9.15;6.38;;;2.40;36.70;;;;;;5016784;28;20400;-72
2022/02/28 04:16:09;;;;;;;12.80;6.70;;;2.40;37.90;;;;;;5022304;28;20454;-73
2022/02/28 04:18:35;;;;;;;13.17;6.50;;;2.50;37.60;;;;;;5022962;28;20409;-73
2022/02/28 04:21:00;;;;;;;15.80;6.90;;;2.40;37.70;;;;;;5016828;28;20806;-73
2022/02/28 04:23:26;;;;;;;13.18;6.95;;;2.40;37.70;;;;;;4993154;28;20449;-73
2022/02/28 04:25:52;;;;;;;11.88;6.93;;;2.20;37.70;;;;;;5009734;28;20418;-73
2022/02/28 04:28:17;;;;;;;13.65;7.30;;;2.10;39.70;;;;;;5010356;28;20404;-73
2022/02/28 04:30:43;;;;;;;12.57;6.60;;;2.40;39.20;;;;;;5014791;28;20451;-73
2022/02/28 04:33:09;;;;;;;13.07;7.60;;;2.30;37.40;;;;;;5016037;28;20414;-73
2022/02/28 04:35:34;;;;;;;15.50;7.10;;;2.30;39.70;;;;;;5012042;28;20777;-74
2022/02/28 04:38:03;;;;;;;10.20;6.90;;;2.10;39.90;;;;;;5011197;28;20400;-73
2022/02/28 04:40:28;;;;;;;8.57;6.50;;;2.00;41.80;;;;;;5018330;28;20412;-74
2022/02/28 04:42:54;;;;;;;10.10;6.50;;;2.00;40.80;;;;;;5010091;28;20405;-72
2022/02/28 04:45:20;;;;;;;12.67;6.90;;;2.00;40.00;;;;;;5025016;28;20412;-71
2022/02/28 04:47:45;;;;;;;14.73;7.90;;;2.00;39.70;;;;;;5009439;28;20522;-74
2022/02/28 04:50:11;;;;;;;13.75;7.75;;;2.00;40.50;;;;;;5025199;28;20408;-73
2022/02/28 04:52:36;;;;;;;18.85;7.47;;;2.10;40.40;;;;;;5014606;28;20758;-72
2022/02/28 04:55:02;;;;;;;12.53;7.90;;;2.00;39.80;;;;;;5009867;28;20388;-72
2022/02/28 04:57:29;;;;;;;13.52;7.60;;;2.00;40.60;;;;;;5013518;28;20401;-72
2022/02/28 04:59:55;;;;;;;13.63;7.40;;;2.10;39.90;;;;;;5026065;28;20792;-72
2022/02/28 05:02:21;;;;;;;17.10;7.85;;;2.00;40.60;;;;;;5009793;28;20462;-73
2022/02/28 05:04:46;;;;;;;12.57;7.70;;;2.00;40.50;;;;;;5011029;28;20810;-73
2022/02/28 05:07:12;;;;;;;11.20;7.17;;;1.80;41.00;;;;;;5022756;28;20901;-73
2022/02/28 05:09:38;;;;;;;10.67;7.30;;;1.70;43.50;;;;;;5009729;28;20453;-73
2022/02/28 05:12:03;;;;;;;14.35;8.13;;;1.90;42.10;;;;;;4991412;28;20488;-72
2022/02/28 05:14:29;;;;;;;15.40;7.57;;;1.90;42.00;;;;;;5013651;28;20388;-73
2022/02/28 05:16:54;;;;;;;11.40;8.13;;;1.90;40.30;;;;;;5013189;28;20400;-73
2022/02/28 05:19:20;;;;;;;14.97;7.90;;;2.00;40.00;;;;;;5008473;28;20394;-74
2022/02/28 05:21:46;;;;;;;13.43;7.37;;;1.90;41.90;;;;;;5019126;28;20415;-74
2022/02/28 05:24:11;;;;;;;15.52;7.70;;;1.80;42.20;;;;;;5015096;28;20396;-74
2022/02/28 05:26:37;;;;;;;16.35;7.90;;;1.80;42.60;;;;;;5014812;28;20415;-74
2022/02/28 05:29:02;;;;;;;16.77;8.10;;;1.60;43.80;;;;;;5010565;28;20449;-74
2022/02/28 05:31:28;;;;;;;13.57;7.77;;;1.60;43.00;;;;;;5012779;28;20413;-73
2022/02/28 05:33:53;;;;;;;11.77;7.70;;;1.50;41.30;;;;;;5017184;28;20460;-74
2022/02/28 05:36:19;;;;;;;13.10;8.60;;;1.40;42.50;;;;;;5023075;28;20490;-73
2022/02/28 05:38:44;;;;;;;13.57;7.40;;;1.50;44.50;;;;;;5024643;28;20747;-73
2022/02/28 05:41:10;;;;;;;11.73;7.63;;;1.50;43.20;;;;;;5010118;28;20432;-74
2022/02/28 05:43:36;;;;;;;13.10;7.80;;;1.50;44.30;;;;;;5025847;28;20406;-73
2022/02/28 05:46:01;;;;;;;11.57;7.43;;;1.50;42.60;;;;;;5043849;28;20399;-73
2022/02/28 05:48:51;;;;;;;13.07;8.07;;;1.60;42.50;;;;;;5037855;28;20684;-76
2022/02/28 05:51:17;;;;;;;14.32;7.70;;;1.50;43.10;;;;;;5012702;28;20412;-74
2022/02/28 05:53:43;;;;;;;11.55;7.90;;;1.50;41.90;;;;;;5017448;28;20827;-74
2022/02/28 05:56:08;;;;;;;12.02;8.30;;;1.50;44.30;;;;;;5024652;28;20391;-75
2022/02/28 05:58:34;;;;;;;12.23;7.95;;;1.50;43.10;;;;;;5029091;28;20407;-74
2022/02/28 06:00:59;;;;;;;16.77;8.43;;;1.50;42.70;;;;;;5022310;28;20482;-76
2022/02/28 06:03:25;;;;;;;15.93;9.10;;;1.50;43.10;;;;;;5011566;28;20411;-74
2022/02/28 06:05:50;;;;;;;11.57;8.60;;;1.50;43.10;;;;;;5017743;28;20402;-76
2022/02/28 06:08:16;;;;;;;17.05;8.00;;;1.60;43.60;;;;;;5017214;28;20881;-76
2022/02/28 06:10:42;;;;;;;15.98;7.97;;;1.40;44.50;;;;;;5017852;28;20908;-76
2022/02/28 06:13:07;;;;;;;14.10;8.00;;;1.50;45.60;;;;;;5012268;28;20845;-76
2022/02/28 06:15:33;;;;;;;12.77;8.77;;;1.40;44.60;;;;;;5013339;28;20879;-76
2022/02/28 06:18:02;;;;;;;13.13;8.65;;;1.40;45.20;;;;;;5026753;28;20407;-76
2022/02/28 06:20:28;;;;;;;15.07;8.63;;;1.40;46.50;;;;;;5030871;28;20918;-75
2022/02/28 06:22:54;;;;;;;11.57;8.43;;;1.40;46.50;;;;;;5020328;28;20412;-74
2022/02/28 06:25:20;;;;;;;15.10;8.85;;;1.50;45.90;;;;;;5013595;28;20467;-76
2022/02/28 06:27:45;;;;;;;17.25;9.00;;;1.50;45.50;;;;;;5024691;28;20897;-75
2022/02/28 06:30:11;;;;;;;14.57;8.53;;;1.50;44.50;;;;;;5015679;28;20438;-75
2022/02/28 06:32:37;;;;;;;16.35;9.02;;;1.50;45.60;;;;;;5029542;28;20399;-74
2022/02/28 06:35:04;;;;;;;14.75;8.77;;;1.60;43.90;;;;;;5023315;28;20395;-75
2022/02/28 06:37:30;;;;;;;16.13;8.30;;;1.60;43.70;;;;;;5016582;28;20393;-75
2022/02/28 06:39:55;;;;;;;19.10;9.07;;;1.70;40.80;;;;;;5016149;28;20487;-75
2022/02/28 06:42:21;;;;;;;13.17;8.50;;;1.60;39.90;;;;;;4998840;28;20499;-75
2022/02/28 06:44:46;;;;;;;14.80;8.77;;;1.70;44.00;;;;;;5019307;28;20487;-75
2022/02/28 06:47:12;;;;;;;18.98;9.02;;;1.80;40.00;;;;;;5020542;28;20408;-75
2022/02/28 06:49:38;;;;;;;16.27;8.95;;;1.70;39.70;;;;;;4995971;28;20385;-75
2022/02/28 06:52:04;;;;;;;12.88;8.90;;;1.80;40.50;;;;;;5021749;28;20415;-75
2022/02/28 06:54:29;;;;;;;12.75;8.20;;;1.90;41.50;;;;;;5034819;28;20902;-75
2022/02/28 06:56:55;;;;;;;13.20;8.52;;;2.00;39.70;;;;;;5040122;28;20391;-75
2022/02/28 06:59:20;;;;;;;12.73;8.40;;;2.00;40.00;;;;;;5011073;28;20428;-75
2022/02/28 07:01:46;;;;;;;14.40;9.10;;;2.00;40.10;;;;;;5016317;28;20873;-75
2022/02/28 07:04:12;;;;;;;115.17;55.70;;;2.00;40.60;;;;;;5030782;28;20491;-75
2022/02/28 07:06:37;;;;;;;53.50;26.65;;;2.10;40.70;;;;;;5018306;28;20401;-75
2022/02/28 07:09:05;;;;;;;24.10;13.00;;;2.20;40.30;;;;;;5027686;28;20553;-75
2022/02/28 07:11:30;;;;;;;18.60;9.13;;;2.40;44.80;;;;;;5028176;28;20412;-75
2022/02/28 07:13:56;;;;;;;20.13;11.63;;;2.50;38.80;;;;;;5016898;28;20407;-76
2022/02/28 07:16:22;;;;;;;15.17;9.60;;;2.60;41.40;;;;;;5020994;28;20401;-76
2022/02/28 07:18:47;;;;;;;18.48;9.95;;;2.70;39.30;;;;;;5020309;28;20529;-75
2022/02/28 07:21:13;;;;;;;20.92;11.10;;;2.90;41.20;;;;;;5018480;28;20401;-75
2022/02/28 07:23:38;;;;;;;19.97;10.80;;;3.10;37.90;;;;;;5018630;28;20404;-75
2022/02/28 07:26:04;;;;;;;16.77;9.10;;;3.10;35.50;;;;;;5012820;28;20878;-76
2022/02/28 07:28:30;;;;;;;21.17;10.60;;;3.00;34.20;;;;;;5016103;28;20408;-76
2022/02/28 07:30:55;;;;;;;18.48;9.50;;;3.10;37.40;;;;;;5014203;28;20416;-75
2022/02/28 07:33:21;;;;;;;18.63;11.63;;;3.20;35.30;;;;;;5005339;28;20586;-74
2022/02/28 07:35:46;;;;;;;24.00;12.57;;;3.20;34.30;;;;;;5012957;28;20392;-74
2022/02/28 07:38:12;;;;;;;24.87;12.53;;;3.40;35.00;;;;;;4996953;28;20506;-75
2022/02/28 07:40:38;;;;;;;18.00;8.93;;;3.40;33.40;;;;;;5015415;28;20500;-74
2022/02/28 07:43:04;;;;;;;14.43;9.18;;;3.50;32.80;;;;;;5011774;28;20890;-74
2022/02/28 07:45:32;;;;;;;14.95;9.27;;;3.60;32.70;;;;;;5010559;28;20425;-75
2022/02/28 07:47:58;;;;;;;20.05;10.13;;;3.70;32.00;;;;;;5025143;28;20413;-74
2022/02/28 07:50:23;;;;;;;16.67;9.88;;;3.70;31.80;;;;;;5008808;28;20855;-74
2022/02/28 07:52:49;;;;;;;14.38;9.05;;;3.60;31.30;;;;;;4996905;28;20500;-75
2022/02/28 07:55:14;;;;;;;20.90;12.23;;;3.70;30.70;;;;;;5016501;28;20393;-72
2022/02/28 07:57:40;;;;;;;24.13;12.93;;;3.80;31.40;;;;;;5015009;28;20392;-72
2022/02/28 08:00:07;;;;;;;33.50;15.50;;;3.90;30.70;;;;;;5029585;28;20518;-74
2022/02/28 08:02:32;;;;;;;24.50;12.80;;;4.10;30.90;;;;;;5016262;28;20401;-74
2022/02/28 08:04:58;;;;;;;23.17;11.90;;;4.10;30.40;;;;;;5013814;28;20763;-73
2022/02/28 08:07:23;;;;;;;16.97;10.40;;;4.20;29.30;;;;;;5017924;28;20470;-73
2022/02/28 08:09:49;;;;;;;17.87;10.53;;;4.40;29.70;;;;;;5018470;28;20459;-74
2022/02/28 08:12:15;;;;;;;18.43;10.40;;;4.40;28.50;;;;;;5018234;28;20396;-73
2022/02/28 08:14:40;;;;;;;16.48;10.00;;;4.30;27.90;;;;;;5021356;28;20425;-73
2022/02/28 08:17:07;;;;;;;17.45;9.43;;;4.40;28.60;;;;;;5015138;28;20826;-74
2022/02/28 08:19:32;;;;;;;15.10;9.30;;;4.50;26.80;;;;;;5021401;28;20765;-73
2022/02/28 08:21:58;;;;;;;14.05;8.60;;;4.60;26.80;;;;;;5019962;28;20405;-74
2022/02/28 08:24:24;;;;;;;22.87;9.70;;;4.80;26.90;;;;;;5027199;28;20419;-74
2022/02/28 08:26:49;;;;;;;17.83;8.90;;;5.10;25.30;;;;;;5027733;28;20493;-74
2022/02/28 08:29:15;;;;;;;17.63;8.30;;;5.20;26.10;;;;;;5025704;28;20921;-74
2022/02/28 08:31:40;;;;;;;20.73;8.43;;;5.30;23.60;;;;;;5024018;28;20416;-73
2022/02/28 08:34:06;;;;;;;12.38;8.60;;;5.40;22.80;;;;;;5018584;28;21682;-73
2022/02/28 08:36:35;;;;;;;14.53;8.13;;;5.40;22.70;;;;;;5023178;28;20880;-73
2022/02/28 08:39:02;;;;;;;14.43;8.60;;;5.60;23.20;;;;;;5022095;28;20400;-74
2022/02/28 08:41:28;;;;;;;15.87;9.40;;;5.70;21.90;;;;;;5004128;28;20406;-73
2022/02/28 08:43:53;;;;;;;14.05;9.40;;;5.80;21.30;;;;;;5020716;28;20917;-73
2022/02/28 08:46:19;;;;;;;14.43;8.18;;;5.90;21.40;;;;;;5021417;28;20409;-73
2022/02/28 08:48:45;;;;;;;17.75;8.68;;;5.90;22.00;;;;;;5023501;28;20538;-74
2022/02/28 08:51:10;;;;;;;17.70;8.97;;;6.00;22.20;;;;;;5021331;28;20451;-73
2022/02/28 08:53:36;;;;;;;17.07;9.30;;;6.10;21.80;;;;;;5018957;28;20403;-73
2022/02/28 08:56:02;;;;;;;16.03;9.90;;;6.10;20.40;;;;;;5011933;28;21078;-74
2022/02/28 08:58:27;;;;;;;16.48;9.60;;;6.30;20.20;;;;;;5016408;28;20393;-74
2022/02/28 09:00:53;;;;;;;15.52;9.20;;;6.20;19.80;;;;;;5018618;28;20466;-73
2022/02/28 09:03:18;;;;;;;16.55;9.43;;;6.50;19.70;;;;;;5019154;28;20447;-73
2022/02/28 09:05:44;;;;;;;16.52;9.05;;;6.50;19.50;;;;;;5019870;28;20401;-75
2022/02/28 09:08:10;;;;;;;15.10;9.20;;;6.60;18.60;;;;;;5011997;28;20478;-75
2022/02/28 09:10:36;;;;;;;14.57;8.98;;;6.60;18.80;;;;;;5010448;28;20545;-76
2022/02/28 09:13:02;;;;;;;16.48;9.48;;;6.70;17.80;;;;;;5019121;28;20395;-77
2022/02/28 09:15:27;;;;;;;15.88;9.40;;;6.80;17.60;;;;;;5012521;28;20744;-75
2022/02/28 09:17:53;;;;;;;18.03;10.00;;;6.80;17.80;;;;;;5026132;28;20412;-75
2022/02/28 09:20:19;;;;;;;18.08;9.40;;;6.80;17.20;;;;;;5022643;28;20873;-75
2022/02/28 09:22:45;;;;;;;17.00;9.68;;;7.00;17.30;;;;;;5020741;28;20400;-75
2022/02/28 09:25:11;;;;;;;15.88;9.00;;;7.00;16.90;;;;;;5020727;28;20413;-76
2022/02/28 09:27:38;;;;;;;19.38;9.60;;;7.10;17.70;;;;;;5014009;28;20415;-75
2022/02/28 09:30:05;;;;;;;15.88;9.70;;;7.30;17.60;;;;;;5018226;28;20417;-76
2022/02/28 09:32:30;;;;;;;15.60;9.68;;;7.30;17.50;;;;;;5015147;28;20456;-74
2022/02/28 09:34:56;;;;;;;14.02;9.60;;;7.40;16.70;;;;;;5015076;28;20894;-75
2022/02/28 09:37:22;;;;;;;14.80;9.05;;;7.40;15.70;;;;;;5022082;28;20399;-75
2022/02/28 09:39:47;;;;;;;17.83;9.75;;;7.50;16.80;;;;;;5013070;28;20757;-74
2022/02/28 09:42:13;;;;;;;14.57;9.40;;;7.70;15.40;;;;;;4998516;28;20488;-75
2022/02/28 09:44:39;;;;;;;15.90;9.52;;;7.70;15.70;;;;;;5016883;28;20477;-72
2022/02/28 09:47:06;;;;;;;16.05;9.60;;;7.80;15.30;;;;;;5016863;28;20846;-72
2022/02/28 09:49:32;;;;;;;18.13;9.60;;;7.80;15.30;;;;;;5020773;28;20411;-74
2022/02/28 09:51:58;;;;;;;16.90;9.82;;;7.80;16.10;;;;;;5014242;28;20905;-74
2022/02/28 09:54:24;;;;;;;17.05;9.65;;;8.00;16.60;;;;;;5012414;28;20394;-74
2022/02/28 09:56:50;;;;;;;13.18;9.20;;;8.00;14.60;;;;;;4991090;28;20404;-74
2022/02/28 09:59:19;;;;;;;17.08;9.40;;;8.00;15.00;;;;;;5011391;28;20404;-74
2022/02/28 10:01:45;;;;;;;15.90;9.10;;;8.00;14.20;;;;;;5001917;28;20408;-75
2022/02/28 10:04:13;;;;;;;15.60;9.35;;;8.10;14.90;;;;;;5020589;28;20772;-76
2022/02/28 10:06:39;;;;;;;21.42;9.95;;;8.10;14.90;;;;;;5018967;28;20499;-73
2022/02/28 10:09:07;;;;;;;15.57;10.15;;;8.20;14.00;;;;;;5024274;28;20421;-76
2022/02/28 10:11:39;;;;;;;16.30;9.73;;;8.30;13.70;;;;;;5016592;28;20416;-75
2022/02/28 10:14:10;;;;;;;16.58;10.00;;;8.20;13.90;;;;;;5010392;28;20437;-74
2022/02/28 10:16:46;;;;;;;16.00;9.70;;;8.30;13.60;;;;;;5010895;28;20403;-75
2022/02/28 10:19:14;;;;;;;16.15;9.70;;;8.40;13.60;;;;;;5009222;28;20412;-74
2022/02/28 10:21:48;;;;;;;15.87;9.47;;;8.60;13.20;;;;;;5012403;28;20755;-74
2022/02/28 10:24:38;;;;;;;14.60;9.03;;;8.70;12.40;;;;;;5008637;28;20401;-74
2022/02/28 10:27:06;;;;;;;16.00;9.30;;;8.80;12.70;;;;;;5013167;28;20448;-75
2022/02/28 10:29:34;;;;;;;13.60;9.10;;;8.80;13.00;;;;;;5015529;28;20442;-75
2022/02/28 10:32:09;;;;;;;15.13;9.80;;;8.90;14.30;;;;;;5017329;28;20499;-74
2022/02/28 10:37:20;;;;;;;13.57;9.47;;;8.80;12.40;;;;;;5017763;28;20395;-75
2022/02/28 10:39:57;;;;;;;16.02;9.93;;;9.00;13.20;;;;;;5021896;28;20881;-77
2022/02/28 10:42:24;;;;;;;19.98;10.30;;;9.00;12.90;;;;;;5014231;28;20908;-75
2022/02/28 10:45:17;;;;;;;18.83;10.50;;;9.00;12.30;;;;;;5014609;28;20408;-73
2022/02/28 10:47:47;;;;;;;15.23;9.82;;;9.00;11.90;;;;;;5012685;28;20498;-73
2022/02/28 10:50:28;;;;;;;15.83;10.37;;;9.00;11.70;;;;;;5013081;28;20836;-73
2022/02/28 10:52:57;;;;;;;19.00;9.90;;;9.10;11.70;;;;;;5012816;28;20388;-73
2022/02/28 10:55:35;;;;;;;15.40;9.48;;;9.20;11.50;;;;;;5012065;28;20392;-74
2022/02/28 10:58:05;;;;;;;14.75;9.20;;;9.40;12.00;;;;;;5012063;28;20408;-75
2022/02/28 11:00:30;;;;;;;14.80;9.50;;;9.40;12.30;;;;;;5012345;28;20729;-75
2022/02/28 11:03:02;;;;;;;17.57;10.07;;;9.60;11.50;;;;;;5013439;28;20875;-74
2022/02/28 11:05:28;;;;;;;16.73;9.48;;;9.40;10.00;;;;;;5011057;28;20773;-74
2022/02/28 11:07:54;;;;;;;19.92;10.32;;;9.40;10.80;;;;;;5019508;28;20476;-74
2022/02/28 11:10:21;;;;;;;22.90;9.52;;;9.50;10.40;;;;;;5015154;28;20821;-74
2022/02/28 11:12:48;;;;;;;16.50;9.77;;;9.60;10.20;;;;;;5012489;28;20977;-76
2022/02/28 11:15:18;;;;;;;13.38;9.35;;;9.70;10.20;;;;;;5012846;28;20395;-73
2022/02/28 11:17:46;;;;;;;14.60;9.00;;;9.70;10.80;;;;;;5027096;28;20396;-75
2022/02/28 11:20:14;;;;;;;17.45;9.20;;;9.80;11.00;;;;;;5010617;28;20420;-74
2022/02/28 11:22:42;;;;;;;21.38;8.98;;;9.70;9.70;;;;;;5015912;28;20405;-73
2022/02/28 11:25:11;;;;;;;15.30;8.98;;;9.70;9.20;;;;;;5011515;28;20498;-75
2022/02/28 11:27:39;;;;;;;16.98;9.48;;;9.80;10.90;;;;;;5011581;28;20834;-73
2022/02/28 11:30:11;;;;;;;15.40;9.30;;;10.00;9.70;;;;;;5011984;28;20499;-74
2022/02/28 11:32:38;;;;;;;15.45;9.30;;;10.00;10.80;;;;;;4993584;28;20408;-74
2022/02/28 11:35:43;;;;;;;15.73;9.70;;;10.00;9.70;;;;;;5010141;28;20416;-75
2022/02/28 11:38:17;;;;;;;20.40;9.15;;;9.90;7.80;;;;;;5016699;28;20399;-75
2022/02/28 11:40:52;;;;;;;13.43;8.45;;;10.00;8.30;;;;;;5014023;28;20407;-75
2022/02/28 11:43:22;;;;;;;16.40;9.77;;;10.00;9.10;;;;;;5012294;28;20510;-75
2022/02/28 11:45:52;;;;;;;14.45;9.20;;;10.10;8.50;;;;;;5014797;28;20447;-74
2022/02/28 11:48:18;;;;;;;15.90;9.80;;;10.20;8.20;;;;;;4994952;28;20742;-75
2022/02/28 11:50:59;;;;;;;15.20;9.10;;;10.10;7.50;;;;;;5021678;28;20407;-74
2022/02/28 11:53:44;;;;;;;13.88;8.43;;;10.10;8.30;;;;;;5019864;28;20402;-75
2022/02/28 11:56:16;;;;;;;16.37;9.40;;;10.10;10.60;;;;;;5020210;28;20391;-76
2022/02/28 11:58:58;;;;;;;17.95;8.98;;;10.40;9.70;;;;;;5013058;28;20412;-76
2022/02/28 12:01:37;;;;;;;13.98;8.98;;;10.50;8.30;;;;;;5011969;28;20393;-75
2022/02/28 12:04:12;;;;;;;13.73;7.87;;;10.50;8.30;;;;;;5011440;28;20405;-75
2022/02/28 12:07:07;;;;;;;19.77;9.40;;;10.60;8.00;;;;;;5010747;28;20405;-75
2022/02/28 12:09:32;;;;;;;14.68;9.20;;;10.70;8.00;;;;;;5011014;28;20407;-75
2022/02/28 12:12:13;;;;;;;14.57;9.33;;;10.80;8.60;;;;;;5011343;28;20472;-75
2022/02/28 12:14:57;;;;;;;15.93;9.70;;;10.80;8.20;;;;;;5008102;28;20466;-75
2022/02/28 12:17:44;;;;;;;14.57;9.37;;;10.80;7.40;;;;;;5012733;28;20405;-76
2022/02/28 12:20:19;;;;;;;16.77;8.80;;;10.80;7.60;;;;;;5011665;28;20404;-77
2022/02/28 12:25:51;;;;;;;16.15;9.57;;;11.00;7.20;;;;;;5013881;28;20467;-75
2022/02/28 12:28:17;;;;;;;15.95;9.05;;;11.10;8.10;;;;;;4998802;28;20798;-75
2022/02/28 12:30:48;;;;;;;13.30;9.00;;;11.00;7.40;;;;;;5013140;28;20508;-75
2022/02/28 12:33:16;;;;;;;17.50;9.10;;;11.20;7.50;;;;;;5015731;28;20462;-74
2022/02/28 12:36:03;;;;;;;11.07;7.63;;;11.20;7.40;;;;;;5015665;28;20746;-74
2022/02/28 12:38:31;;;;;;;14.13;9.00;;;11.20;7.30;;;;;;4999843;28;20710;-74
2022/02/28 12:40:59;;;;;;;16.20;8.53;;;11.20;5.50;;;;;;5023583;28;20399;-74
2022/02/28 12:43:27;;;;;;;16.15;9.10;;;11.20;5.40;;;;;;5015586;28;20399;-75
2022/02/28 12:45:58;;;;;;;12.88;8.60;;;11.20;5.80;;;;;;5009999;28;20413;-74
2022/02/28 12:48:25;;;;;;;10.55;7.80;;;11.20;6.70;;;;;;5011202;28;20423;-75
2022/02/28 12:50:56;;;;;;;16.47;8.87;;;11.30;6.50;;;;;;5011049;28;20468;-76
2022/02/28 12:53:28;;;;;;;13.38;8.45;;;11.40;6.20;;;;;;5012038;28;20439;-75